createdAt,value
2022-08-25T00:00:05.200Z,23.27
2022-08-25T00:00:35.965Z,23.27
2022-08-25T00:00:53.002Z,23.22
2022-08-25T00:01:26.982Z,23.22
2022-08-25T00:01:42.078Z,23.22
2022-08-25T00:02:13.914Z,23.22
2022-08-25T00:02:35.973Z,23.22
2022-08-25T00:03:01.459Z,23.22
2022-08-25T00:03:35.888Z,23.27
2022-08-25T00:04:04.919Z,23.27
2022-08-25T00:04:36.159Z,23.27
2022-08-25T00:04:53.681Z,23.27
2022-08-25T00:05:25.113Z,23.27
2022-08-25T00:05:43.304Z,23.27
2022-08-25T00:06:13.003Z,23.22
2022-08-25T00:06:36.963Z,23.22
2022-08-25T00:07:03.297Z,23.22
2022-08-25T00:07:34.847Z,23.11
2022-08-25T00:08:05.021Z,23.00
2022-08-25T00:08:35.884Z,22.88
2022-08-25T00:09:09.885Z,22.88
2022-08-25T00:09:36.096Z,22.88
2022-08-25T00:09:56.905Z,22.88
2022-08-25T00:10:29.077Z,22.88
2022-08-25T00:11:03.440Z,23.00
2022-08-25T00:11:33.024Z,23.11
2022-08-25T00:12:04.906Z,23.11
2022-08-25T00:12:36.066Z,23.11
2022-08-25T00:12:52.795Z,23.22
2022-08-25T00:13:24.929Z,23.22
2022-08-25T00:13:42.460Z,23.22
2022-08-25T00:14:13.146Z,23.22
2022-08-25T00:14:36.962Z,23.22
2022-08-25T00:15:01.482Z,23.11
2022-08-25T00:15:32.824Z,23.11
2022-08-25T00:16:05.921Z,23.11
2022-08-25T00:16:36.830Z,23.11
2022-08-25T00:17:08.948Z,23.11
2022-08-25T00:17:38.684Z,23.11
2022-08-25T00:17:56.960Z,23.11
2022-08-25T00:18:28.892Z,23.11
2022-08-25T00:19:01.246Z,23.11
2022-08-25T00:19:32.911Z,23.11
2022-08-25T00:20:05.049Z,23.11
2022-08-25T00:20:36.771Z,23.11
2022-08-25T00:21:08.838Z,23.00
2022-08-25T00:21:36.012Z,23.00
2022-08-25T00:21:58.075Z,23.00
2022-08-25T00:22:29.572Z,23.00
2022-08-25T00:23:01.273Z,23.00
2022-08-25T00:23:32.936Z,22.88
2022-08-25T00:24:04.835Z,22.88
2022-08-25T00:24:35.831Z,22.77
2022-08-25T00:25:09.010Z,22.77
2022-08-25T00:25:36.005Z,22.77
2022-08-25T00:25:57.708Z,22.77
2022-08-25T00:26:28.985Z,22.77
2022-08-25T00:27:01.354Z,22.77
2022-08-25T00:27:33.487Z,22.77
2022-08-25T00:28:08.381Z,22.77
2022-08-25T00:28:35.903Z,22.77
2022-08-25T00:29:09.239Z,22.77
2022-08-25T00:29:36.684Z,22.77
2022-08-25T00:29:56.958Z,22.77
2022-08-25T00:30:29.052Z,22.72
2022-08-25T00:31:01.395Z,22.72
2022-08-25T00:31:38.403Z,22.72
2022-08-25T00:32:04.831Z,22.72
2022-08-25T00:32:37.611Z,22.72
2022-08-25T00:33:08.924Z,22.77
2022-08-25T00:33:36.904Z,22.77
2022-08-25T00:33:56.907Z,22.77
2022-08-25T00:34:29.024Z,22.72
2022-08-25T00:35:01.211Z,22.72
2022-08-25T00:35:33.237Z,22.72
2022-08-25T00:36:05.778Z,22.72
2022-08-25T00:36:36.096Z,22.61
2022-08-25T00:37:09.674Z,22.61
2022-08-25T00:37:36.045Z,22.61
2022-08-25T00:37:57.792Z,22.61
2022-08-25T00:38:28.988Z,22.61
2022-08-25T00:39:01.610Z,22.61
2022-08-25T00:39:32.995Z,22.72
2022-08-25T00:40:05.141Z,22.77
2022-08-25T00:40:38.006Z,22.77
2022-08-25T00:41:08.854Z,22.88
2022-08-25T00:41:35.939Z,22.88
2022-08-25T00:41:56.887Z,22.88
2022-08-25T00:42:29.036Z,22.72
2022-08-25T00:43:02.409Z,22.72
2022-08-25T00:43:33.120Z,22.72
2022-08-25T00:44:04.829Z,22.72
2022-08-25T00:44:36.079Z,22.72
2022-08-25T00:44:53.040Z,22.72
2022-08-25T00:45:25.082Z,22.72
2022-08-25T00:45:42.297Z,22.72
2022-08-25T00:46:13.171Z,22.72
2022-08-25T00:46:35.915Z,22.72
2022-08-25T00:47:01.333Z,22.72
2022-08-25T00:47:33.013Z,22.72
2022-08-25T00:48:05.667Z,22.72
2022-08-25T00:48:36.091Z,22.72
2022-08-25T00:49:08.962Z,22.72
2022-08-25T00:49:35.925Z,22.77
2022-08-25T00:49:56.933Z,22.77
2022-08-25T00:50:29.081Z,22.77
2022-08-25T00:51:02.192Z,22.72
2022-08-25T00:51:32.841Z,22.72
2022-08-25T00:52:04.902Z,22.72
2022-08-25T00:52:36.810Z,22.72
2022-08-25T00:53:09.513Z,22.61
2022-08-25T00:53:36.727Z,22.61
2022-08-25T00:53:57.154Z,22.61
2022-08-25T00:54:29.002Z,22.61
2022-08-25T00:55:07.856Z,22.61
2022-08-25T00:55:32.956Z,22.61
2022-08-25T00:56:05.263Z,22.61
2022-08-25T00:56:35.888Z,22.50
2022-08-25T00:56:52.847Z,22.50
2022-08-25T00:57:33.987Z,22.50
2022-08-25T00:57:43.181Z,22.38
2022-08-25T00:58:14.487Z,22.38
2022-08-25T00:58:35.903Z,22.27
2022-08-25T00:59:01.339Z,22.27
2022-08-25T00:59:32.971Z,22.27
2022-08-25T01:00:05.933Z,22.27
2022-08-25T01:00:36.959Z,22.27
2022-08-25T01:01:09.826Z,22.50
2022-08-25T01:01:37.062Z,22.50
2022-08-25T01:01:59.082Z,22.50
2022-08-25T01:02:29.012Z,22.61
2022-08-25T01:03:01.422Z,22.72
2022-08-25T01:03:35.724Z,22.72
2022-08-25T01:04:05.001Z,22.72
2022-08-25T01:04:43.772Z,22.72
2022-08-25T01:05:08.791Z,22.72
2022-08-25T01:05:36.821Z,22.72
2022-08-25T01:05:56.958Z,22.72
2022-08-25T01:06:29.175Z,22.72
2022-08-25T01:07:01.159Z,22.61
2022-08-25T01:07:32.921Z,22.61
2022-08-25T01:08:06.651Z,22.50
2022-08-25T01:08:36.015Z,22.50
2022-08-25T01:09:08.796Z,22.50
2022-08-25T01:09:36.898Z,22.50
2022-08-25T01:09:57.712Z,22.38
2022-08-25T01:10:28.912Z,22.38
2022-08-25T01:11:01.269Z,22.38
2022-08-25T01:11:33.719Z,22.22
2022-08-25T01:12:05.752Z,22.22
2022-08-25T01:12:37.047Z,22.22
2022-08-25T01:13:16.603Z,22.27
2022-08-25T01:13:36.220Z,22.50
2022-08-25T01:13:56.874Z,22.50
2022-08-25T01:14:29.204Z,22.50
2022-08-25T01:15:01.187Z,22.50
2022-08-25T01:15:33.055Z,22.50
2022-08-25T01:16:04.822Z,22.50
2022-08-25T01:16:35.871Z,22.50
2022-08-25T01:17:08.821Z,22.50
2022-08-25T01:17:36.971Z,22.50
2022-08-25T01:17:56.904Z,22.50
2022-08-25T01:18:29.716Z,22.50
2022-08-25T01:19:01.086Z,22.38
2022-08-25T01:19:33.023Z,22.38
2022-08-25T01:20:04.866Z,22.38
2022-08-25T01:20:36.502Z,22.38
2022-08-25T01:21:08.873Z,22.38
2022-08-25T01:21:35.958Z,22.38
2022-08-25T01:21:56.986Z,22.38
2022-08-25T01:22:28.861Z,22.50
2022-08-25T01:23:01.185Z,22.38
2022-08-25T01:23:33.451Z,22.38
2022-08-25T01:24:05.661Z,22.38
2022-08-25T01:24:35.990Z,22.38
2022-08-25T01:25:08.250Z,22.27
2022-08-25T01:25:24.565Z,22.27
2022-08-25T01:25:42.233Z,22.27
2022-08-25T01:26:12.881Z,22.27
2022-08-25T01:26:36.974Z,22.22
2022-08-25T01:27:01.515Z,22.22
2022-08-25T01:27:32.960Z,22.11
2022-08-25T01:28:04.942Z,22.00
2022-08-25T01:28:38.393Z,22.00
2022-08-25T01:29:08.873Z,22.00
2022-08-25T01:29:37.186Z,22.00
2022-08-25T01:29:58.764Z,22.00
2022-08-25T01:30:29.862Z,22.11
2022-08-25T01:31:01.350Z,22.11
2022-08-25T01:31:32.879Z,22.11
2022-08-25T01:32:04.907Z,22.11
2022-08-25T01:32:35.969Z,22.00
2022-08-25T01:33:08.182Z,22.00
2022-08-25T01:33:24.711Z,22.00
2022-08-25T01:33:43.756Z,22.00
2022-08-25T01:34:14.115Z,22.00
2022-08-25T01:34:36.726Z,22.00
2022-08-25T01:35:02.153Z,22.11
2022-08-25T01:35:33.754Z,22.11
2022-08-25T01:36:04.870Z,22.11
2022-08-25T01:36:35.854Z,22.11
2022-08-25T01:36:52.631Z,22.11
2022-08-25T01:37:24.929Z,22.11
2022-08-25T01:37:42.366Z,22.11
2022-08-25T01:38:13.029Z,22.00
2022-08-25T01:38:35.997Z,22.00
2022-08-25T01:39:01.860Z,22.00
2022-08-25T01:39:32.890Z,21.88
2022-08-25T01:40:04.894Z,21.88
2022-08-25T01:40:35.916Z,21.88
2022-08-25T01:40:52.886Z,21.77
2022-08-25T01:41:24.812Z,21.77
2022-08-25T01:41:42.372Z,21.77
2022-08-25T01:42:12.941Z,21.77
2022-08-25T01:42:35.907Z,21.77
2022-08-25T01:43:01.274Z,21.77
2022-08-25T01:43:33.083Z,21.77
2022-08-25T01:44:05.455Z,21.77
2022-08-25T01:44:35.838Z,21.72
2022-08-25T01:45:08.188Z,21.72
2022-08-25T01:45:24.752Z,21.72
2022-08-25T01:45:43.600Z,21.72
2022-08-25T01:46:12.885Z,21.72
2022-08-25T01:46:36.552Z,21.72
2022-08-25T01:47:02.270Z,21.72
2022-08-25T01:47:33.015Z,21.72
2022-08-25T01:48:08.595Z,21.72
2022-08-25T01:48:37.943Z,21.72
2022-08-25T01:49:08.763Z,21.61
2022-08-25T01:49:36.948Z,21.61
2022-08-25T01:49:57.614Z,21.61
2022-08-25T01:50:28.809Z,21.61
2022-08-25T01:51:00.965Z,21.61
2022-08-25T01:51:32.944Z,21.61
2022-08-25T01:52:05.394Z,21.50
2022-08-25T01:52:35.855Z,21.50
2022-08-25T01:52:52.916Z,21.50
2022-08-25T01:53:24.774Z,21.50
2022-08-25T01:53:42.264Z,21.50
2022-08-25T01:54:12.865Z,21.50
2022-08-25T01:54:35.984Z,21.50
2022-08-25T01:55:00.958Z,21.38
2022-08-25T01:55:32.890Z,21.38
2022-08-25T01:56:04.762Z,21.38
2022-08-25T01:56:35.938Z,21.38
2022-08-25T01:56:52.843Z,21.38
2022-08-25T01:57:24.603Z,21.38
2022-08-25T01:57:42.125Z,21.27
2022-08-25T01:58:12.743Z,21.27
2022-08-25T01:58:35.854Z,21.27
2022-08-25T01:59:01.154Z,21.27
2022-08-25T01:59:33.009Z,21.27
2022-08-25T02:00:05.024Z,21.27
2022-08-25T02:00:36.909Z,21.27
2022-08-25T02:01:08.994Z,21.27
2022-08-25T02:01:36.600Z,21.27
2022-08-25T02:01:59.654Z,21.27
2022-08-25T02:02:28.938Z,21.27
2022-08-25T02:03:01.026Z,21.27
2022-08-25T02:03:33.918Z,21.27
2022-08-25T02:04:04.951Z,21.22
2022-08-25T02:04:38.534Z,21.22
2022-08-25T02:05:08.704Z,21.22
2022-08-25T02:05:35.944Z,21.27
2022-08-25T02:05:56.803Z,21.27
2022-08-25T02:06:30.037Z,21.27
2022-08-25T02:07:01.940Z,21.27
2022-08-25T02:07:32.855Z,21.22
2022-08-25T02:08:04.716Z,21.22
2022-08-25T02:08:36.051Z,21.22
2022-08-25T02:08:52.885Z,21.22
2022-08-25T02:09:24.987Z,21.22
2022-08-25T02:09:42.155Z,21.22
2022-08-25T02:10:12.932Z,21.22
2022-08-25T02:10:36.075Z,21.22
2022-08-25T02:11:01.167Z,21.22
2022-08-25T02:11:33.679Z,21.22
2022-08-25T02:12:04.688Z,21.22
2022-08-25T02:12:35.998Z,21.22
2022-08-25T02:12:54.348Z,21.22
2022-08-25T02:13:26.842Z,21.22
2022-08-25T02:13:43.022Z,21.22
2022-08-25T02:14:13.247Z,21.22
2022-08-25T02:14:35.910Z,21.22
2022-08-25T02:15:01.077Z,21.22
2022-08-25T02:15:32.910Z,21.22
2022-08-25T02:16:04.955Z,21.22
2022-08-25T02:16:37.194Z,21.22
2022-08-25T02:17:11.423Z,21.22
2022-08-25T02:17:36.827Z,21.22
2022-08-25T02:17:56.828Z,21.22
2022-08-25T02:18:28.923Z,21.22
2022-08-25T02:19:00.916Z,21.22
2022-08-25T02:19:33.305Z,21.22
2022-08-25T02:20:05.840Z,21.22
2022-08-25T02:20:35.970Z,21.22
2022-08-25T02:20:52.598Z,21.22
2022-08-25T02:21:24.781Z,21.22
2022-08-25T02:21:43.109Z,21.22
2022-08-25T02:22:12.809Z,21.27
2022-08-25T02:22:36.807Z,21.27
2022-08-25T02:23:00.821Z,21.27
2022-08-25T02:23:32.850Z,21.27
2022-08-25T02:24:04.676Z,21.27
2022-08-25T02:24:36.901Z,21.27
2022-08-25T02:25:08.783Z,21.27
2022-08-25T02:25:36.212Z,21.27
2022-08-25T02:25:56.817Z,21.27
2022-08-25T02:26:28.827Z,21.22
2022-08-25T02:27:01.067Z,21.22
2022-08-25T02:27:33.681Z,21.22
2022-08-25T02:28:04.914Z,21.22
2022-08-25T02:28:37.080Z,21.22
2022-08-25T02:29:08.688Z,21.22
2022-08-25T02:29:36.482Z,21.22
2022-08-25T02:29:56.779Z,21.22
2022-08-25T02:30:28.838Z,21.11
2022-08-25T02:31:02.279Z,21.11
2022-08-25T02:31:32.904Z,21.11
2022-08-25T02:32:04.753Z,21.11
2022-08-25T02:32:36.710Z,21.11
2022-08-25T02:33:08.744Z,21.11
2022-08-25T02:33:36.332Z,21.11
2022-08-25T02:33:56.782Z,21.11
2022-08-25T02:34:28.823Z,21.11
2022-08-25T02:35:00.784Z,21.11
2022-08-25T02:35:33.561Z,21.11
2022-08-25T02:36:04.807Z,21.11
2022-08-25T02:36:35.897Z,21.11
2022-08-25T02:36:53.109Z,21.11
2022-08-25T02:37:24.761Z,21.11
2022-08-25T02:37:43.636Z,21.11
2022-08-25T02:38:13.022Z,21.11
2022-08-25T02:38:36.684Z,21.11
2022-08-25T02:39:00.899Z,21.11
2022-08-25T02:39:32.893Z,21.11
2022-08-25T02:40:05.212Z,21.11
2022-08-25T02:40:36.891Z,21.11
2022-08-25T02:41:08.770Z,21.00
2022-08-25T02:41:36.012Z,21.00
2022-08-25T02:41:57.757Z,21.00
2022-08-25T02:42:28.851Z,21.00
2022-08-25T02:43:02.094Z,21.00
2022-08-25T02:43:32.921Z,21.00
2022-08-25T02:44:05.104Z,21.00
2022-08-25T02:44:35.963Z,20.88
2022-08-25T02:44:52.558Z,20.88
2022-08-25T02:45:24.974Z,20.88
2022-08-25T02:45:43.487Z,20.88
2022-08-25T02:46:13.105Z,20.88
2022-08-25T02:46:36.017Z,20.88
2022-08-25T02:47:00.962Z,20.88
2022-08-25T02:47:33.148Z,20.88
2022-08-25T02:48:05.786Z,20.88
2022-08-25T02:48:35.953Z,20.88
2022-08-25T02:48:52.530Z,20.88
2022-08-25T02:49:24.649Z,20.88
2022-08-25T02:49:42.271Z,20.88
2022-08-25T02:50:12.906Z,20.88
2022-08-25T02:50:35.965Z,20.88
2022-08-25T02:51:00.756Z,20.88
2022-08-25T02:51:32.876Z,20.88
2022-08-25T02:52:05.362Z,20.88
2022-08-25T02:52:36.036Z,20.88
2022-08-25T02:52:53.610Z,20.88
2022-08-25T02:53:24.671Z,20.88
2022-08-25T02:53:42.325Z,20.88
2022-08-25T02:54:12.881Z,20.88
2022-08-25T02:54:35.905Z,20.88
2022-08-25T02:55:00.855Z,20.88
2022-08-25T02:55:34.656Z,20.88
2022-08-25T02:56:04.784Z,20.88
2022-08-25T02:56:36.988Z,20.77
2022-08-25T02:57:09.373Z,20.77
2022-08-25T02:57:36.942Z,20.77
2022-08-25T02:57:56.963Z,20.77
2022-08-25T02:58:28.806Z,20.88
2022-08-25T02:59:02.487Z,20.88
2022-08-25T02:59:33.827Z,20.88
2022-08-25T03:00:04.886Z,20.88
2022-08-25T03:00:35.889Z,20.88
2022-08-25T03:00:52.621Z,20.88
2022-08-25T03:01:28.844Z,20.88
2022-08-25T03:01:43.111Z,20.88
2022-08-25T03:02:13.649Z,20.88
2022-08-25T03:02:36.065Z,20.88
2022-08-25T03:03:00.670Z,20.77
2022-08-25T03:03:37.521Z,20.77
2022-08-25T03:04:07.161Z,20.77
2022-08-25T03:04:36.965Z,20.77
2022-08-25T03:05:08.647Z,20.77
2022-08-25T03:05:36.028Z,20.77
2022-08-25T03:05:57.813Z,20.77
2022-08-25T03:06:28.908Z,20.77
2022-08-25T03:07:00.786Z,20.77
2022-08-25T03:07:35.521Z,20.77
2022-08-25T03:08:04.858Z,20.77
2022-08-25T03:08:35.959Z,20.77
2022-08-25T03:08:52.536Z,20.88
2022-08-25T03:09:24.752Z,20.88
2022-08-25T03:09:42.441Z,20.88
2022-08-25T03:10:13.666Z,20.88
2022-08-25T03:10:37.220Z,20.88
2022-08-25T03:11:00.737Z,21.00
2022-08-25T03:11:33.081Z,21.00
2022-08-25T03:12:04.669Z,21.00
2022-08-25T03:12:35.895Z,21.00
2022-08-25T03:13:08.201Z,21.11
2022-08-25T03:13:24.551Z,21.11
2022-08-25T03:13:42.739Z,21.11
2022-08-25T03:14:12.822Z,21.00
2022-08-25T03:14:35.879Z,21.00
2022-08-25T03:15:00.868Z,21.00
2022-08-25T03:15:33.232Z,21.00
2022-08-25T03:16:04.605Z,20.88
2022-08-25T03:16:36.271Z,20.88
2022-08-25T03:16:53.625Z,20.88
2022-08-25T03:17:33.580Z,20.88
2022-08-25T03:17:43.779Z,20.88
2022-08-25T03:18:14.028Z,20.88
2022-08-25T03:18:35.900Z,21.00
2022-08-25T03:19:00.698Z,21.00
2022-08-25T03:19:32.862Z,21.00
2022-08-25T03:20:04.700Z,21.11
2022-08-25T03:20:35.866Z,21.11
2022-08-25T03:21:08.020Z,21.22
2022-08-25T03:21:24.567Z,21.27
2022-08-25T03:21:42.087Z,21.27
2022-08-25T03:22:13.472Z,21.27
2022-08-25T03:22:37.215Z,21.27
2022-08-25T03:23:00.939Z,21.27
2022-08-25T03:23:33.681Z,21.27
2022-08-25T03:24:04.601Z,21.38
2022-08-25T03:24:36.900Z,21.38
2022-08-25T03:25:08.699Z,21.38
2022-08-25T03:25:35.920Z,21.38
2022-08-25T03:25:56.681Z,21.38
2022-08-25T03:26:28.891Z,21.38
2022-08-25T03:27:02.757Z,21.27
2022-08-25T03:27:34.524Z,21.27
2022-08-25T03:28:05.005Z,21.27
2022-08-25T03:28:35.897Z,21.27
2022-08-25T03:28:53.426Z,21.27
2022-08-25T03:29:24.609Z,21.27
2022-08-25T03:29:43.582Z,21.27
2022-08-25T03:30:12.905Z,21.27
2022-08-25T03:30:35.893Z,21.27
2022-08-25T03:31:00.790Z,21.22
2022-08-25T03:31:32.997Z,21.22
2022-08-25T03:32:04.828Z,21.22
2022-08-25T03:32:37.386Z,21.22
2022-08-25T03:33:08.715Z,21.22
2022-08-25T03:33:36.807Z,21.22
2022-08-25T03:33:56.679Z,21.22
2022-08-25T03:34:28.953Z,21.22
2022-08-25T03:35:00.789Z,21.22
2022-08-25T03:35:33.349Z,21.22
2022-08-25T03:36:04.725Z,21.22
2022-08-25T03:36:36.991Z,21.22
2022-08-25T03:37:08.649Z,21.22
2022-08-25T03:37:36.720Z,21.22
2022-08-25T03:37:57.742Z,21.11
2022-08-25T03:38:29.648Z,21.11
2022-08-25T03:39:00.996Z,21.11
2022-08-25T03:39:32.983Z,21.11
2022-08-25T03:40:04.769Z,21.22
2022-08-25T03:40:35.870Z,21.22
2022-08-25T03:41:08.102Z,21.22
2022-08-25T03:41:27.927Z,21.22
2022-08-25T03:41:42.280Z,21.22
2022-08-25T03:42:12.950Z,21.22
2022-08-25T03:42:36.693Z,21.22
2022-08-25T03:43:01.872Z,21.22
2022-08-25T03:43:32.862Z,21.22
2022-08-25T03:44:04.815Z,21.22
2022-08-25T03:44:37.116Z,21.22
2022-08-25T03:45:08.720Z,21.22
2022-08-25T03:45:36.040Z,21.22
2022-08-25T03:45:57.858Z,21.22
2022-08-25T03:46:29.663Z,21.22
2022-08-25T03:47:00.638Z,21.22
2022-08-25T03:47:33.005Z,21.22
2022-08-25T03:48:05.478Z,21.22
2022-08-25T03:48:35.969Z,21.22
2022-08-25T03:48:54.907Z,21.22
2022-08-25T03:49:24.672Z,21.22
2022-08-25T03:49:42.464Z,21.22
2022-08-25T03:50:12.874Z,21.22
2022-08-25T03:50:35.927Z,21.22
2022-08-25T03:51:00.613Z,21.22
2022-08-25T03:51:32.878Z,21.27
2022-08-25T03:52:04.584Z,21.27
2022-08-25T03:52:40.202Z,21.27
2022-08-25T03:53:08.158Z,21.27
2022-08-25T03:53:25.449Z,21.22
2022-08-25T03:53:42.811Z,21.22
2022-08-25T03:54:12.909Z,21.22
2022-08-25T03:54:35.919Z,21.22
2022-08-25T03:55:00.673Z,21.22
2022-08-25T03:55:32.841Z,21.22
2022-08-25T03:56:06.672Z,21.22
2022-08-25T03:56:35.908Z,21.22
2022-08-25T03:57:08.132Z,21.22
2022-08-25T03:57:24.570Z,21.22
2022-08-25T03:57:42.307Z,21.22
2022-08-25T03:58:12.896Z,21.22
2022-08-25T03:58:35.933Z,21.22
2022-08-25T03:59:00.642Z,21.11
2022-08-25T03:59:32.989Z,21.11
2022-08-25T04:00:05.947Z,21.11
2022-08-25T04:00:35.990Z,21.11
2022-08-25T04:00:53.543Z,21.11
2022-08-25T04:01:25.592Z,21.00
2022-08-25T04:01:42.884Z,21.00
2022-08-25T04:02:12.959Z,21.00
2022-08-25T04:02:36.365Z,21.00
2022-08-25T04:03:00.648Z,21.00
2022-08-25T04:03:33.404Z,21.00
2022-08-25T04:04:05.597Z,21.00
2022-08-25T04:04:35.905Z,21.00
2022-08-25T04:04:52.923Z,21.00
2022-08-25T04:05:24.605Z,21.00
2022-08-25T04:05:42.319Z,21.00
2022-08-25T04:06:12.829Z,21.00
2022-08-25T04:06:35.888Z,21.00
2022-08-25T04:07:00.668Z,21.00
2022-08-25T04:07:32.973Z,20.88
2022-08-25T04:08:05.721Z,20.88
2022-08-25T04:08:36.471Z,20.88
2022-08-25T04:09:08.778Z,20.88
2022-08-25T04:09:36.917Z,20.88
2022-08-25T04:09:56.632Z,20.88
2022-08-25T04:10:28.833Z,20.77
2022-08-25T04:11:00.653Z,20.77
2022-08-25T04:11:32.956Z,20.72
2022-08-25T04:12:05.232Z,20.72
2022-08-25T04:12:35.914Z,20.72
2022-08-25T04:12:52.415Z,20.72
2022-08-25T04:13:24.608Z,20.72
2022-08-25T04:13:42.780Z,20.72
2022-08-25T04:14:13.769Z,20.61
2022-08-25T04:14:35.950Z,20.61
2022-08-25T04:15:01.174Z,20.61
2022-08-25T04:15:32.882Z,20.61
2022-08-25T04:16:04.905Z,20.61
2022-08-25T04:16:38.375Z,20.61
2022-08-25T04:17:08.653Z,20.50
2022-08-25T04:17:35.933Z,20.50
2022-08-25T04:17:57.697Z,20.38
2022-08-25T04:18:28.826Z,20.38
2022-08-25T04:19:00.629Z,20.38
2022-08-25T04:19:33.202Z,20.38
2022-08-25T04:20:04.728Z,20.38
2022-08-25T04:20:37.950Z,20.38
2022-08-25T04:21:08.653Z,20.27
2022-08-25T04:21:36.924Z,20.27
2022-08-25T04:21:57.682Z,20.27
2022-08-25T04:22:28.930Z,20.27
2022-08-25T04:23:02.563Z,20.22
2022-08-25T04:23:33.146Z,20.22
2022-08-25T04:24:04.637Z,20.22
2022-08-25T04:24:36.662Z,20.22
2022-08-25T04:25:08.556Z,20.22
2022-08-25T04:25:36.158Z,20.22
2022-08-25T04:25:56.671Z,20.22
2022-08-25T04:26:28.879Z,20.22
2022-08-25T04:27:00.862Z,20.22
2022-08-25T04:27:32.913Z,20.11
2022-08-25T04:28:04.753Z,20.11
2022-08-25T04:28:36.502Z,20.11
2022-08-25T04:29:08.716Z,20.11
2022-08-25T04:29:36.276Z,20.00
2022-08-25T04:29:56.862Z,20.00
2022-08-25T04:30:29.065Z,20.00
2022-08-25T04:31:01.240Z,20.00
2022-08-25T04:31:33.278Z,20.00
2022-08-25T04:32:04.698Z,20.00
2022-08-25T04:32:36.002Z,20.00
2022-08-25T04:32:53.124Z,19.88
2022-08-25T04:33:24.730Z,19.88
2022-08-25T04:33:44.008Z,19.88
2022-08-25T04:34:28.359Z,19.88
2022-08-25T04:34:37.240Z,19.88
2022-08-25T04:35:00.699Z,19.88
2022-08-25T04:35:33.018Z,19.88
2022-08-25T04:36:08.774Z,19.88
2022-08-25T04:36:37.005Z,19.88
2022-08-25T04:37:08.705Z,19.88
2022-08-25T04:37:36.061Z,19.88
2022-08-25T04:37:56.737Z,19.88
2022-08-25T04:38:29.003Z,19.77
2022-08-25T04:39:00.948Z,19.77
2022-08-25T04:39:33.263Z,19.77
2022-08-25T04:40:05.068Z,19.77
2022-08-25T04:40:36.097Z,19.72
2022-08-25T04:40:52.861Z,19.72
2022-08-25T04:41:24.670Z,19.72
2022-08-25T04:41:42.427Z,19.72
2022-08-25T04:42:13.317Z,19.72
2022-08-25T04:42:36.144Z,19.72
2022-08-25T04:43:01.079Z,19.72
2022-08-25T04:43:34.074Z,19.72
2022-08-25T04:44:04.770Z,19.72
2022-08-25T04:44:36.029Z,19.72
2022-08-25T04:44:52.880Z,19.61
2022-08-25T04:45:24.816Z,19.61
2022-08-25T04:45:42.618Z,19.61
2022-08-25T04:46:13.110Z,19.61
2022-08-25T04:46:37.064Z,19.61
2022-08-25T04:47:00.770Z,19.50
2022-08-25T04:47:34.097Z,19.50
2022-08-25T04:48:04.917Z,19.50
2022-08-25T04:48:36.017Z,19.50
2022-08-25T04:48:52.958Z,19.50
2022-08-25T04:49:24.650Z,19.38
2022-08-25T04:49:42.860Z,19.38
2022-08-25T04:50:13.175Z,19.38
2022-08-25T04:50:36.982Z,19.38
2022-08-25T04:51:02.601Z,19.38
2022-08-25T04:51:33.942Z,19.27
2022-08-25T04:52:12.984Z,19.27
2022-08-25T04:52:36.978Z,19.27
2022-08-25T04:53:08.758Z,19.27
2022-08-25T04:53:37.711Z,19.27
2022-08-25T04:53:56.823Z,19.27
2022-08-25T04:54:29.016Z,19.27
2022-08-25T04:55:00.946Z,19.27
2022-08-25T04:55:33.160Z,19.27
2022-08-25T04:56:04.867Z,19.27
2022-08-25T04:56:35.991Z,19.27
2022-08-25T04:56:54.630Z,19.22
2022-08-25T04:57:24.689Z,19.22
2022-08-25T04:57:43.158Z,19.22
2022-08-25T04:58:14.627Z,19.22
2022-08-25T04:58:36.044Z,19.22
2022-08-25T04:59:00.795Z,19.22
2022-08-25T04:59:33.114Z,19.22
2022-08-25T05:00:06.246Z,19.22
2022-08-25T05:00:36.074Z,19.22
2022-08-25T05:00:53.043Z,19.22
2022-08-25T05:01:24.910Z,19.22
2022-08-25T05:01:42.954Z,19.22
2022-08-25T05:02:13.879Z,19.22
2022-08-25T05:02:38.121Z,19.22
2022-08-25T05:03:00.798Z,19.22
2022-08-25T05:03:33.146Z,19.22
2022-08-25T05:04:06.113Z,19.22
2022-08-25T05:04:36.152Z,19.22
2022-08-25T05:04:53.128Z,19.11
2022-08-25T05:05:24.788Z,19.11
2022-08-25T05:05:42.685Z,19.11
2022-08-25T05:06:16.270Z,19.11
2022-08-25T05:06:36.011Z,19.11
2022-08-25T05:07:00.921Z,19.11
2022-08-25T05:07:34.157Z,19.11
2022-08-25T05:08:04.929Z,19.11
2022-08-25T05:08:36.944Z,19.11
2022-08-25T05:09:08.765Z,19.00
2022-08-25T05:09:36.311Z,19.00
2022-08-25T05:09:56.712Z,19.00
2022-08-25T05:10:28.971Z,19.00
2022-08-25T05:11:00.711Z,19.00
2022-08-25T05:11:33.713Z,19.00
2022-08-25T05:12:04.796Z,19.00
2022-08-25T05:12:36.880Z,19.00
2022-08-25T05:13:09.715Z,19.00
2022-08-25T05:13:37.495Z,19.00
2022-08-25T05:13:56.711Z,19.00
2022-08-25T05:14:29.836Z,19.00
2022-08-25T05:15:00.793Z,19.00
2022-08-25T05:15:33.276Z,19.00
2022-08-25T05:16:05.637Z,19.00
2022-08-25T05:16:36.306Z,19.00
2022-08-25T05:16:53.102Z,19.00
2022-08-25T05:17:25.326Z,19.11
2022-08-25T05:17:43.059Z,19.11
2022-08-25T05:18:13.331Z,19.11
2022-08-25T05:18:36.029Z,19.11
2022-08-25T05:19:01.970Z,19.11
2022-08-25T05:19:33.626Z,19.11
2022-08-25T05:20:04.991Z,19.11
2022-08-25T05:20:36.045Z,19.11
2022-08-25T05:20:52.934Z,19.11
2022-08-25T05:21:24.623Z,19.22
2022-08-25T05:21:42.536Z,19.22
2022-08-25T05:22:13.204Z,19.22
2022-08-25T05:22:36.152Z,19.22
2022-08-25T05:23:00.692Z,19.22
2022-08-25T05:23:33.892Z,19.22
2022-08-25T05:24:04.754Z,19.22
2022-08-25T05:24:36.090Z,19.22
2022-08-25T05:24:52.957Z,19.22
2022-08-25T05:25:27.344Z,19.22
2022-08-25T05:25:42.444Z,19.22
2022-08-25T05:26:16.510Z,19.22
2022-08-25T05:26:36.505Z,19.22
2022-08-25T05:27:00.814Z,19.22
2022-08-25T05:27:33.525Z,19.22
2022-08-25T05:28:04.902Z,19.22
2022-08-25T05:28:36.196Z,19.22
2022-08-25T05:28:53.016Z,19.22
2022-08-25T05:29:24.676Z,19.22
2022-08-25T05:29:42.505Z,19.22
2022-08-25T05:30:13.153Z,19.27
2022-08-25T05:30:36.153Z,19.27
2022-08-25T05:31:00.697Z,19.27
2022-08-25T05:31:33.154Z,19.27
2022-08-25T05:32:04.896Z,19.27
2022-08-25T05:32:37.931Z,19.27
2022-08-25T05:33:08.758Z,19.27
2022-08-25T05:33:36.131Z,19.27
2022-08-25T05:33:58.804Z,19.27
2022-08-25T05:34:28.935Z,19.27
2022-08-25T05:35:00.877Z,19.27
2022-08-25T05:35:33.299Z,19.38
2022-08-25T05:36:04.713Z,19.38
2022-08-25T05:36:36.150Z,19.38
2022-08-25T05:36:53.241Z,19.38
2022-08-25T05:37:24.664Z,19.38
2022-08-25T05:37:43.752Z,19.38
2022-08-25T05:38:15.546Z,19.38
2022-08-25T05:38:36.162Z,19.38
2022-08-25T05:39:00.782Z,19.38
2022-08-25T05:39:33.718Z,19.38
2022-08-25T05:40:04.952Z,19.38
2022-08-25T05:40:36.341Z,19.38
2022-08-25T05:41:08.646Z,19.38
2022-08-25T05:41:36.261Z,19.50
2022-08-25T05:41:57.863Z,19.50
2022-08-25T05:42:29.008Z,19.50
2022-08-25T05:43:00.677Z,19.61
2022-08-25T05:43:33.872Z,19.61
2022-08-25T05:44:04.824Z,19.72
2022-08-25T05:44:36.003Z,19.72
2022-08-25T05:44:53.350Z,19.72
2022-08-25T05:45:24.720Z,19.72
2022-08-25T05:45:44.224Z,19.72
2022-08-25T05:46:13.398Z,19.72
2022-08-25T05:46:36.227Z,19.77
2022-08-25T05:47:00.625Z,19.77
2022-08-25T05:47:33.102Z,19.77
2022-08-25T05:48:05.163Z,19.88
2022-08-25T05:48:40.496Z,19.88
2022-08-25T05:49:08.711Z,19.88
2022-08-25T05:49:37.334Z,19.88
2022-08-25T05:49:56.694Z,19.88
2022-08-25T05:50:28.896Z,20.00
2022-08-25T05:51:00.629Z,20.00
2022-08-25T05:51:33.191Z,20.00
2022-08-25T05:52:07.340Z,20.00
2022-08-25T05:52:36.067Z,20.00
2022-08-25T05:52:53.641Z,20.00
2022-08-25T05:53:24.739Z,20.00
2022-08-25T05:53:42.713Z,20.00
2022-08-25T05:54:13.174Z,20.00
2022-08-25T05:54:36.289Z,20.00
2022-08-25T05:55:01.849Z,20.00
2022-08-25T05:55:33.250Z,20.11
2022-08-25T05:56:05.530Z,20.11
2022-08-25T05:56:36.331Z,20.11
2022-08-25T05:56:53.118Z,20.11
2022-08-25T05:57:25.746Z,20.11
2022-08-25T05:57:43.288Z,20.11
2022-08-25T05:58:13.957Z,20.11
2022-08-25T05:58:36.105Z,20.11
2022-08-25T05:59:04.964Z,20.11
2022-08-25T05:59:33.411Z,20.11
2022-08-25T06:00:05.105Z,20.11
2022-08-25T06:00:36.097Z,20.11
2022-08-25T06:00:53.604Z,20.22
2022-08-25T06:01:24.740Z,20.22
2022-08-25T06:01:43.286Z,20.22
2022-08-25T06:02:13.540Z,20.22